createdAt,value
2023-05-10T00:02:05.177Z,15.72
2023-05-10T00:04:31.954Z,15.78
2023-05-10T00:06:58.614Z,15.71
2023-05-10T00:09:25.476Z,15.54
2023-05-10T00:11:52.152Z,15.63
2023-05-10T00:14:19.567Z,15.59
2023-05-10T00:16:46.495Z,15.61
2023-05-10T00:19:13.547Z,15.59
2023-05-10T00:21:40.425Z,15.52
2023-05-10T00:24:07.188Z,15.50
2023-05-10T00:26:34.010Z,15.41
2023-05-10T00:29:01.101Z,15.53
2023-05-10T00:31:27.992Z,15.56
2023-05-10T00:33:54.719Z,15.60
2023-05-10T00:36:22.131Z,15.63
2023-05-10T00:38:48.852Z,15.56
2023-05-10T00:41:15.552Z,15.55
2023-05-10T00:43:42.326Z,15.50
2023-05-10T00:46:09.207Z,15.51
2023-05-10T00:48:35.984Z,15.59
2023-05-10T00:51:03.119Z,15.64
2023-05-10T00:53:30.387Z,15.53
2023-05-10T00:55:57.118Z,15.56
2023-05-10T00:58:25.210Z,15.45
2023-05-10T01:00:52.405Z,15.55
2023-05-10T01:03:19.521Z,15.40
2023-05-10T01:05:46.333Z,15.45
2023-05-10T01:08:13.078Z,15.51
2023-05-10T01:10:39.877Z,15.44
2023-05-10T01:13:06.667Z,15.36
2023-05-10T01:15:33.436Z,15.36
2023-05-10T01:18:00.872Z,15.27
2023-05-10T01:20:31.122Z,14.91
2023-05-10T01:23:29.773Z,15.02
2023-05-10T01:26:16.335Z,14.84
2023-05-10T01:29:15.736Z,14.83
2023-05-10T01:32:22.707Z,14.91
2023-05-10T01:34:58.980Z,14.85
2023-05-10T01:37:32.679Z,14.82
2023-05-10T01:40:04.729Z,14.83
2023-05-10T01:42:38.398Z,14.88
2023-05-10T01:45:42.520Z,14.97
2023-05-10T01:48:12.544Z,14.96
2023-05-10T01:50:41.911Z,15.02
2023-05-10T01:53:09.755Z,14.99
2023-05-10T01:55:41.388Z,15.01
2023-05-10T01:58:10.660Z,14.96
2023-05-10T02:00:38.714Z,14.97
2023-05-10T02:03:08.223Z,14.99
2023-05-10T02:05:35.629Z,15.02
2023-05-10T02:08:03.069Z,15.08
2023-05-10T02:10:30.698Z,14.85
2023-05-10T02:13:00.266Z,14.94
2023-05-10T02:15:27.959Z,14.37
2023-05-10T02:17:57.227Z,14.37
2023-05-10T02:20:24.989Z,14.51
2023-05-10T02:22:53.280Z,14.72
2023-05-10T02:25:21.732Z,14.62
2023-05-10T02:27:49.222Z,14.45
2023-05-10T02:30:17.479Z,14.48
2023-05-10T02:32:45.076Z,14.40
2023-05-10T02:35:12.490Z,14.47
2023-05-10T02:37:40.177Z,14.53
2023-05-10T02:40:08.116Z,14.72
2023-05-10T02:42:37.559Z,14.54
2023-05-10T02:45:08.483Z,14.51
2023-05-10T02:47:35.649Z,14.22
2023-05-10T02:50:02.369Z,14.30
2023-05-10T02:52:32.281Z,14.28
2023-05-10T02:55:02.567Z,14.21
2023-05-10T02:57:33.761Z,14.37
2023-05-10T03:00:01.553Z,14.33
2023-05-10T03:02:28.718Z,14.21
2023-05-10T03:04:55.555Z,14.29
2023-05-10T03:07:22.562Z,14.28
2023-05-10T03:09:50.361Z,14.10
2023-05-10T03:12:43.819Z,14.07
2023-05-10T03:15:33.130Z,14.09
2023-05-10T03:18:12.455Z,14.17
2023-05-10T03:20:57.911Z,14.09
2023-05-10T03:23:30.619Z,14.03
2023-05-10T03:25:57.918Z,14.00
2023-05-10T03:28:26.459Z,13.96
2023-05-10T03:30:54.250Z,13.84
2023-05-10T03:33:21.394Z,13.86
2023-05-10T03:35:48.204Z,13.88
2023-05-10T03:38:15.017Z,13.82
2023-05-10T03:40:41.916Z,13.90
2023-05-10T03:43:08.893Z,13.89
2023-05-10T03:45:35.959Z,13.98
2023-05-10T03:48:02.706Z,13.87
2023-05-10T03:50:29.414Z,13.88
2023-05-10T03:52:56.394Z,13.90
2023-05-10T03:55:23.806Z,13.92
2023-05-10T03:57:55.023Z,13.91
2023-05-10T04:00:21.720Z,13.98
2023-05-10T04:02:48.582Z,14.01
2023-05-10T04:05:15.764Z,13.99
2023-05-10T04:07:42.594Z,14.00
2023-05-10T04:10:09.867Z,13.98
2023-05-10T04:12:36.692Z,13.90
2023-05-10T04:15:03.812Z,13.87
2023-05-10T04:17:30.586Z,13.92
2023-05-10T04:19:57.307Z,13.85
2023-05-10T04:22:24.008Z,13.84
2023-05-10T04:24:50.818Z,13.75
2023-05-10T04:27:17.587Z,14.08
2023-05-10T04:29:44.319Z,14.14
2023-05-10T04:32:11.693Z,13.89
2023-05-10T04:34:38.600Z,13.77
2023-05-10T04:37:05.701Z,13.89
2023-05-10T04:39:32.407Z,13.95
2023-05-10T04:41:59.098Z,13.56
2023-05-10T04:44:26.315Z,13.52
2023-05-10T04:46:53.316Z,13.66
2023-05-10T04:49:19.990Z,13.56
2023-05-10T04:51:46.671Z,13.77
2023-05-10T04:54:13.456Z,13.71
2023-05-10T04:56:40.438Z,13.83
2023-05-10T04:59:07.125Z,13.90
2023-05-10T05:01:34.330Z,13.92
2023-05-10T05:04:01.402Z,13.89
2023-05-10T05:06:28.662Z,13.89
2023-05-10T05:08:55.426Z,13.92
2023-05-10T05:11:22.402Z,13.86
2023-05-10T05:13:49.124Z,13.86
2023-05-10T05:16:16.424Z,13.96
2023-05-10T05:18:43.213Z,14.00
2023-05-10T05:21:19.876Z,13.97
2023-05-10T05:23:47.014Z,14.00
2023-05-10T05:26:14.076Z,13.97
2023-05-10T05:28:40.806Z,14.01
2023-05-10T05:31:11.560Z,14.09
2023-05-10T05:33:38.981Z,14.09
2023-05-10T05:36:06.825Z,14.23
2023-05-10T05:38:33.697Z,14.26
2023-05-10T05:41:00.832Z,14.20
2023-05-10T05:43:27.613Z,14.26
2023-05-10T05:45:55.184Z,14.31
2023-05-10T05:48:22.375Z,14.34
2023-05-10T05:50:49.203Z,14.31
2023-05-10T05:53:16.529Z,14.27
2023-05-10T05:56:03.811Z,14.37
2023-05-10T05:58:30.588Z,14.37
2023-05-10T06:00:57.646Z,14.46
2023-05-10T06:03:24.509Z,14.42
2023-05-10T06:05:51.253Z,14.37
2023-05-10T06:08:18.019Z,14.30
2023-05-10T06:10:45.893Z,14.51
2023-05-10T06:13:12.808Z,14.47
2023-05-10T06:15:40.069Z,14.42
2023-05-10T06:18:07.749Z,14.36
2023-05-10T06:20:34.846Z,14.29
2023-05-10T06:23:01.727Z,14.33
2023-05-10T06:25:28.578Z,14.24
2023-05-10T06:27:58.657Z,14.48
2023-05-10T06:30:28.723Z,14.49
2023-05-10T06:32:56.266Z,14.40
2023-05-10T06:35:23.271Z,14.46
2023-05-10T06:37:52.288Z,14.52
2023-05-10T06:40:19.578Z,14.60
2023-05-10T06:42:47.572Z,14.62
2023-05-10T06:45:16.203Z,14.63
2023-05-10T06:47:43.378Z,14.66
2023-05-10T06:50:10.907Z,14.71
2023-05-10T06:52:37.694Z,14.76
2023-05-10T06:55:05.821Z,14.93
2023-05-10T06:57:33.124Z,14.99
2023-05-10T07:00:00.716Z,14.99
2023-05-10T07:02:27.762Z,15.14
2023-05-10T07:04:54.703Z,15.07
2023-05-10T07:07:21.630Z,15.04
2023-05-10T07:09:48.523Z,15.13
2023-05-10T07:12:15.855Z,15.16
2023-05-10T07:14:43.487Z,15.10
2023-05-10T07:17:10.669Z,15.22
2023-05-10T07:19:37.580Z,15.37
2023-05-10T07:22:04.512Z,15.00
2023-05-10T07:24:33.177Z,14.96
2023-05-10T07:27:00.113Z,14.97
2023-05-10T07:29:27.346Z,15.02
2023-05-10T07:31:57.868Z,15.12
2023-05-10T07:34:25.876Z,15.09
2023-05-10T07:36:53.094Z,15.13
2023-05-10T07:39:26.468Z,15.15
2023-05-10T07:41:55.457Z,15.00
2023-05-10T07:44:22.419Z,15.13
2023-05-10T07:46:49.996Z,15.20
2023-05-10T07:49:17.567Z,15.24
2023-05-10T07:51:44.754Z,15.28
2023-05-10T07:54:11.645Z,15.35
2023-05-10T07:56:38.623Z,15.42
2023-05-10T07:59:06.374Z,15.56
2023-05-10T08:01:34.371Z,15.75
2023-05-10T08:04:01.509Z,15.87
2023-05-10T08:06:31.243Z,16.16
2023-05-10T08:08:58.288Z,15.92
2023-05-10T08:11:25.162Z,15.87
2023-05-10T08:13:52.771Z,15.97
2023-05-10T08:16:19.823Z,15.93
2023-05-10T08:18:48.551Z,16.04
2023-05-10T08:21:16.082Z,15.94
2023-05-10T08:23:44.947Z,15.80
2023-05-10T08:26:12.184Z,15.82
2023-05-10T08:28:39.105Z,15.90
2023-05-10T08:31:06.874Z,15.96
2023-05-10T08:33:34.022Z,15.89
2023-05-10T08:36:01.157Z,15.87
2023-05-10T08:38:27.973Z,15.95
2023-05-10T08:40:57.886Z,16.00
2023-05-10T08:43:28.666Z,16.05
2023-05-10T08:45:57.159Z,16.12
2023-05-10T08:48:27.929Z,16.09
2023-05-10T08:50:58.781Z,16.05
2023-05-10T08:53:27.920Z,16.16
2023-05-10T08:55:54.644Z,16.29
2023-05-10T08:58:21.646Z,16.25
2023-05-10T09:00:50.595Z,16.28
2023-05-10T09:03:17.925Z,16.22
2023-05-10T09:05:46.029Z,16.23
2023-05-10T09:08:14.201Z,16.24
2023-05-10T09:10:41.298Z,16.35
2023-05-10T09:13:09.255Z,16.39
2023-05-10T09:15:35.989Z,16.42
2023-05-10T09:18:03.896Z,16.40
2023-05-10T09:20:30.730Z,16.39
2023-05-10T09:22:57.428Z,16.55
2023-05-10T09:25:24.953Z,16.50
2023-05-10T09:27:53.557Z,16.42
2023-05-10T09:30:33.126Z,16.61
2023-05-10T09:33:00.941Z,16.52
2023-05-10T09:35:34.939Z,16.66
2023-05-10T09:38:04.864Z,16.66
2023-05-10T09:40:32.640Z,16.77
2023-05-10T09:43:08.733Z,17.06
2023-05-10T09:45:38.606Z,17.21
2023-05-10T09:48:06.428Z,17.10
2023-05-10T09:50:33.442Z,17.42
2023-05-10T09:53:02.768Z,17.56
2023-05-10T09:55:46.157Z,17.63
2023-05-10T09:58:13.896Z,17.72
2023-05-10T10:00:42.666Z,17.77
2023-05-10T10:03:21.178Z,17.64
2023-05-10T10:05:49.143Z,17.52
2023-05-10T10:08:17.351Z,17.58
2023-05-10T10:10:47.302Z,17.71
2023-05-10T10:13:14.817Z,17.63
2023-05-10T10:15:42.776Z,17.62
2023-05-10T10:18:14.315Z,17.81
2023-05-10T10:20:41.691Z,18.05
2023-05-10T10:23:09.536Z,18.27
2023-05-10T10:25:36.868Z,18.37
2023-05-10T10:28:12.514Z,18.61
2023-05-10T10:30:49.229Z,18.60
2023-05-10T10:33:37.955Z,18.58
2023-05-10T10:36:05.416Z,18.29
2023-05-10T10:39:00.911Z,18.41
2023-05-10T10:41:51.083Z,18.34
2023-05-10T10:44:38.209Z,18.31
2023-05-10T10:47:07.557Z,18.34
2023-05-10T10:49:38.895Z,18.02
2023-05-10T10:52:23.267Z,18.07
2023-05-10T10:54:54.765Z,18.02
2023-05-10T10:57:23.219Z,18.20
2023-05-10T10:59:50.139Z,18.30
2023-05-10T11:02:44.314Z,18.29
2023-05-10T11:05:40.114Z,18.45
2023-05-10T11:08:31.373Z,18.64
2023-05-10T11:11:08.467Z,18.82
2023-05-10T11:13:47.855Z,18.94
2023-05-10T11:16:26.656Z,19.10
2023-05-10T11:19:05.184Z,19.02
2023-05-10T11:21:32.987Z,19.03
2023-05-10T11:24:01.328Z,19.04
2023-05-10T11:26:36.775Z,19.14
2023-05-10T11:29:05.764Z,19.05
2023-05-10T11:31:32.788Z,19.32
2023-05-10T11:34:01.268Z,19.50
2023-05-10T11:36:29.905Z,19.44
2023-05-10T11:38:57.948Z,19.55
2023-05-10T11:41:25.941Z,19.16
2023-05-10T11:43:54.532Z,19.17
2023-05-10T11:46:23.430Z,19.00
2023-05-10T11:48:55.150Z,18.84
2023-05-10T11:51:26.457Z,18.58
2023-05-10T11:54:00.801Z,18.53
2023-05-10T11:56:27.790Z,18.41
2023-05-10T11:58:58.904Z,18.11
2023-05-10T12:01:27.480Z,18.21
2023-05-10T12:03:56.481Z,18.28
2023-05-10T12:06:23.553Z,18.13
2023-05-10T12:08:54.001Z,18.14
2023-05-10T12:11:23.105Z,18.02
2023-05-10T12:13:51.157Z,18.07
2023-05-10T12:16:29.900Z,17.99
2023-05-10T12:19:01.402Z,18.14
2023-05-10T12:21:30.143Z,18.09
2023-05-10T12:24:01.536Z,18.15
2023-05-10T12:26:29.305Z,18.29
2023-05-10T12:28:56.613Z,18.24
2023-05-10T12:31:23.508Z,18.27
2023-05-10T12:33:50.705Z,18.27
2023-05-10T12:36:17.882Z,18.10
2023-05-10T12:38:49.164Z,18.03
2023-05-10T12:41:17.674Z,18.06
2023-05-10T12:43:44.882Z,17.96
2023-05-10T12:46:17.496Z,18.04
2023-05-10T12:48:45.190Z,18.09
2023-05-10T12:51:14.415Z,18.04
2023-05-10T12:53:43.712Z,18.18
2023-05-10T12:56:12.233Z,18.16
2023-05-10T12:58:39.638Z,18.00
2023-05-10T13:01:06.712Z,17.88
2023-05-10T13:03:33.793Z,17.80
2023-05-10T13:06:00.498Z,17.94
2023-05-10T13:08:27.485Z,17.94
2023-05-10T13:10:54.497Z,17.96
2023-05-10T13:13:21.348Z,18.10
2023-05-10T13:15:48.514Z,17.99
2023-05-10T13:18:15.307Z,17.93
2023-05-10T13:20:42.211Z,17.90
2023-05-10T13:23:09.208Z,17.99
2023-05-10T13:25:36.009Z,17.93
2023-05-10T13:28:03.183Z,17.64
2023-05-10T13:30:30.315Z,17.17
2023-05-10T13:32:57.150Z,16.77
2023-05-10T13:35:24.183Z,16.54
2023-05-10T13:37:50.922Z,16.33
2023-05-10T13:40:17.993Z,16.06
2023-05-10T13:42:45.125Z,15.93
2023-05-10T13:45:13.431Z,15.79
2023-05-10T13:47:40.286Z,15.68
2023-05-10T13:50:07.927Z,15.67
2023-05-10T13:52:34.839Z,15.57
2023-05-10T13:55:02.612Z,15.73
2023-05-10T13:57:30.422Z,15.68
2023-05-10T13:59:58.625Z,15.57
2023-05-10T14:02:25.924Z,15.64
2023-05-10T14:04:52.854Z,15.58
2023-05-10T14:07:19.729Z,15.49
2023-05-10T14:09:46.485Z,15.47
2023-05-10T14:12:13.244Z,15.57
2023-05-10T14:14:40.305Z,15.70
2023-05-10T14:17:08.692Z,15.52
2023-05-10T14:19:36.669Z,15.65
2023-05-10T14:22:04.125Z,15.69
2023-05-10T14:24:30.924Z,15.82
2023-05-10T14:26:57.986Z,15.68
2023-05-10T14:29:24.821Z,15.85
2023-05-10T14:31:51.721Z,15.91
2023-05-10T14:34:18.647Z,15.98
2023-05-10T14:36:45.410Z,15.95
2023-05-10T14:39:14.025Z,16.02
2023-05-10T14:41:42.749Z,16.12
2023-05-10T14:44:09.859Z,16.07
2023-05-10T14:46:36.774Z,16.14
2023-05-10T14:49:03.745Z,16.16
2023-05-10T14:51:30.482Z,16.10
2023-05-10T14:53:57.702Z,16.06
2023-05-10T14:56:24.404Z,15.92
2023-05-10T14:58:51.425Z,15.81
2023-05-10T15:01:18.799Z,16.08
2023-05-10T15:03:45.917Z,16.15
2023-05-10T15:06:14.869Z,16.32
2023-05-10T15:08:41.593Z,16.36
2023-05-10T15:11:08.402Z,16.37
2023-05-10T15:13:35.158Z,16.22
2023-05-10T15:16:02.653Z,16.25
2023-05-10T15:18:29.562Z,16.35
2023-05-10T15:20:56.695Z,16.27
2023-05-10T15:23:23.407Z,16.24
2023-05-10T15:25:51.552Z,16.15
2023-05-10T15:28:18.365Z,16.01
2023-05-10T15:30:45.329Z,16.00
2023-05-10T15:33:12.155Z,16.09
2023-05-10T15:35:40.720Z,16.12
2023-05-10T15:38:07.449Z,16.17
2023-05-10T15:40:34.184Z,16.09
2023-05-10T15:43:00.960Z,16.04
2023-05-10T15:45:27.936Z,16.09
2023-05-10T15:47:54.679Z,16.07
2023-05-10T15:50:21.410Z,15.93
2023-05-10T15:52:48.209Z,15.93
2023-05-10T15:55:15.467Z,15.98
2023-05-10T15:57:43.922Z,15.94
2023-05-10T16:00:12.153Z,15.95
2023-05-10T16:02:40.044Z,15.82
2023-05-10T16:05:07.396Z,15.72
2023-05-10T16:07:34.611Z,15.80
2023-05-10T16:10:04.632Z,15.82
2023-05-10T16:12:31.960Z,15.78
2023-05-10T16:15:02.172Z,15.78
2023-05-10T16:17:29.105Z,15.85
2023-05-10T16:19:56.019Z,15.92
2023-05-10T16:22:22.833Z,15.94
2023-05-10T16:24:50.001Z,15.92
2023-05-10T16:27:17.160Z,15.94
2023-05-10T16:29:43.903Z,15.92
2023-05-10T16:32:10.784Z,15.97
2023-05-10T16:34:37.562Z,15.92
2023-05-10T16:37:04.258Z,16.03
2023-05-10T16:39:31.002Z,15.98
2023-05-10T16:41:57.771Z,15.95
2023-05-10T16:44:25.951Z,15.93
2023-05-10T16:46:53.441Z,15.97
2023-05-10T16:49:20.194Z,16.02
2023-05-10T16:51:47.036Z,16.00
2023-05-10T16:54:13.973Z,16.07
2023-05-10T16:56:41.360Z,15.95
2023-05-10T16:59:08.861Z,15.98
2023-05-10T17:01:35.727Z,15.99
2023-05-10T17:04:03.015Z,15.88
2023-05-10T17:06:30.232Z,15.98
2023-05-10T17:08:57.508Z,15.96
2023-05-10T17:11:24.504Z,16.00
2023-05-10T17:13:52.689Z,16.07
2023-05-10T17:16:21.156Z,16.04
2023-05-10T17:18:48.175Z,15.90
2023-05-10T17:21:14.972Z,15.95
2023-05-10T17:23:42.047Z,15.91
2023-05-10T17:26:08.960Z,15.95
2023-05-10T17:28:35.685Z,15.95
2023-05-10T17:31:03.053Z,15.93
2023-05-10T17:33:29.839Z,15.87
2023-05-10T17:35:57.028Z,15.85
2023-05-10T17:38:23.855Z,15.87
2023-05-10T17:40:51.546Z,15.89
2023-05-10T17:43:18.294Z,15.85
2023-05-10T17:45:48.300Z,15.91
2023-05-10T17:48:15.138Z,15.87
2023-05-10T17:50:43.636Z,15.87
2023-05-10T17:53:10.764Z,15.75
2023-05-10T17:55:40.695Z,15.67
2023-05-10T17:58:07.633Z,15.62
2023-05-10T18:00:34.399Z,15.69
2023-05-10T18:03:01.910Z,15.58
2023-05-10T18:05:28.784Z,15.68
2023-05-10T18:07:55.868Z,15.61
2023-05-10T18:10:24.249Z,15.51
2023-05-10T18:12:51.904Z,15.69
2023-05-10T18:15:18.968Z,15.60
2023-05-10T18:17:45.879Z,15.61
2023-05-10T18:20:13.278Z,15.64
2023-05-10T18:22:40.490Z,15.55
2023-05-10T18:25:08.216Z,15.63
2023-05-10T18:27:35.233Z,15.61
2023-05-10T18:30:02.129Z,15.56
2023-05-10T18:32:28.832Z,15.56
2023-05-10T18:34:56.845Z,15.53
2023-05-10T18:37:23.661Z,15.54
2023-05-10T18:39:50.837Z,15.51
2023-05-10T18:42:18.009Z,15.48
2023-05-10T18:44:44.823Z,15.50
2023-05-10T18:47:11.513Z,15.50
2023-05-10T18:49:38.351Z,15.49
2023-05-10T18:52:05.106Z,15.51
2023-05-10T18:54:31.776Z,15.46
2023-05-10T18:56:59.177Z,15.42
2023-05-10T18:59:28.157Z,15.38
2023-05-10T19:01:57.096Z,15.38
2023-05-10T19:04:25.970Z,15.33
2023-05-10T19:06:53.230Z,15.32
2023-05-10T19:09:20.851Z,15.31
2023-05-10T19:11:47.896Z,15.27
2023-05-10T19:14:14.779Z,15.27
2023-05-10T19:16:41.687Z,15.26
2023-05-10T19:19:08.787Z,15.24
2023-05-10T19:21:36.014Z,15.17
2023-05-10T19:24:02.786Z,15.17
2023-05-10T19:26:29.832Z,15.19
2023-05-10T19:28:58.016Z,15.09
2023-05-10T19:31:25.056Z,15.13
2023-05-10T19:33:53.286Z,15.03
2023-05-10T19:36:20.578Z,15.06
2023-05-10T19:38:47.393Z,15.07
2023-05-10T19:41:14.112Z,15.10
2023-05-10T19:43:42.084Z,14.99
2023-05-10T19:46:10.093Z,15.00
2023-05-10T19:48:36.866Z,15.09
2023-05-10T19:51:06.879Z,14.94
2023-05-10T19:53:35.300Z,15.03
2023-05-10T19:56:08.655Z,14.97
2023-05-10T19:58:35.543Z,14.86
2023-05-10T20:01:02.713Z,14.85
2023-05-10T20:03:29.575Z,14.90
2023-05-10T20:05:56.345Z,15.00
2023-05-10T20:08:23.250Z,14.76
2023-05-10T20:10:49.999Z,14.80
2023-05-10T20:13:16.709Z,14.74
2023-05-10T20:15:43.693Z,14.73
2023-05-10T20:18:10.552Z,14.53
2023-05-10T20:20:37.513Z,14.58
2023-05-10T20:23:04.298Z,14.60
2023-05-10T20:25:31.612Z,14.30
2023-05-10T20:27:58.348Z,14.47
2023-05-10T20:30:25.057Z,14.35
2023-05-10T20:32:52.156Z,14.15
2023-05-10T20:35:18.926Z,14.18
2023-05-10T20:37:45.836Z,14.34
2023-05-10T20:40:12.866Z,14.31
2023-05-10T20:42:39.610Z,14.26
2023-05-10T20:45:07.537Z,14.28
2023-05-10T20:47:34.432Z,14.28
2023-05-10T20:50:01.117Z,14.31
2023-05-10T20:52:27.873Z,14.22
2023-05-10T20:54:54.586Z,14.33
2023-05-10T20:57:21.445Z,14.34
2023-05-10T20:59:50.086Z,14.31
2023-05-10T21:02:16.902Z,14.27
2023-05-10T21:04:43.673Z,14.26
2023-05-10T21:07:10.447Z,14.21
2023-05-10T21:09:37.205Z,14.38
2023-05-10T21:12:04.229Z,14.31
2023-05-10T21:14:31.367Z,14.15
2023-05-10T21:16:59.115Z,14.19
2023-05-10T21:19:25.809Z,14.28
2023-05-10T21:21:53.028Z,14.26
2023-05-10T21:24:19.767Z,14.27
2023-05-10T21:26:46.474Z,14.22
2023-05-10T21:29:13.153Z,14.12
2023-05-10T21:31:39.928Z,14.15
2023-05-10T21:34:07.060Z,14.26
2023-05-10T21:36:33.898Z,14.15
2023-05-10T21:39:00.719Z,14.17
2023-05-10T21:41:27.464Z,14.14
2023-05-10T21:43:54.223Z,14.13
2023-05-10T21:46:20.968Z,14.11
2023-05-10T21:48:47.773Z,14.20
2023-05-10T21:51:14.742Z,14.05
2023-05-10T21:53:41.591Z,13.94
2023-05-10T21:56:10.068Z,14.08
2023-05-10T21:58:36.906Z,14.18
2023-05-10T22:01:03.916Z,14.11
2023-05-10T22:03:30.936Z,14.12
2023-05-10T22:05:57.647Z,14.18
2023-05-10T22:08:24.388Z,14.13
2023-05-10T22:10:52.447Z,14.27
2023-05-10T22:13:19.239Z,14.21
2023-05-10T22:15:46.433Z,14.24
2023-05-10T22:18:13.209Z,14.17
2023-05-10T22:20:40.221Z,14.11
2023-05-10T22:23:07.082Z,14.16
2023-05-10T22:25:33.829Z,14.21
2023-05-10T22:28:00.522Z,13.82
2023-05-10T22:30:27.282Z,13.79
2023-05-10T22:32:54.488Z,13.97
2023-05-10T22:35:21.883Z,13.95
2023-05-10T22:37:48.657Z,14.06
2023-05-10T22:40:15.703Z,14.14
2023-05-10T22:42:42.734Z,13.89
2023-05-10T22:45:10.188Z,13.99
2023-05-10T22:47:37.128Z,14.02
2023-05-10T22:50:04.475Z,13.94
2023-05-10T22:52:31.255Z,13.75
2023-05-10T22:54:57.951Z,13.68
2023-05-10T22:57:24.909Z,13.84
2023-05-10T22:59:52.619Z,13.82
2023-05-10T23:02:22.312Z,13.60
2023-05-10T23:04:49.462Z,13.68
2023-05-10T23:07:16.310Z,13.55
2023-05-10T23:09:42.998Z,13.51
2023-05-10T23:12:09.675Z,13.53
2023-05-10T23:14:36.428Z,13.59
2023-05-10T23:17:03.353Z,13.78
2023-05-10T23:19:30.372Z,13.95
2023-05-10T23:21:57.112Z,14.07
2023-05-10T23:24:23.848Z,13.99
2023-05-10T23:26:50.695Z,13.79
2023-05-10T23:29:17.556Z,13.80
2023-05-10T23:31:46.565Z,13.75
2023-05-10T23:34:13.253Z,13.70
2023-05-10T23:36:39.974Z,13.72
2023-05-10T23:39:08.598Z,13.82
2023-05-10T23:41:35.326Z,13.78
2023-05-10T23:44:02.821Z,13.89
2023-05-10T23:46:29.725Z,13.77
2023-05-10T23:48:56.401Z,13.84
2023-05-10T23:51:23.185Z,13.89
2023-05-10T23:53:49.891Z,13.90
2023-05-10T23:56:16.654Z,13.90
2023-05-10T23:58:43.339Z,13.82
